| Date | Time | Temp. (oF) | Dew Point (oF) | Rel. Hum. (%) | Press. (in.) | Wind Dir. (deg.) | Wind Speed (mph) | Hourly Rainfall (i n.) |
|
|---|---|---|---|---|---|---|---|---|---|
| 1 | 08/31 | 24:00 | 67 | 53 | 61 | 30.37 | 230 | 0 | 0.00 |
| 2 | 08/30 | 23:00 | 67 | 51 | 58 | 30.38 | 230 | 0 | 0.00 |
| 3 | 08/30 | 22:00 | 68 | 50 | 54 | 30.38 | 230 | 0 | 0.00 |
| 4 | 08/30 | 21:00 | 70 | 49 | 48 | 30.35 | 230 | 0 | 0.00 |
| 5 | 08/30 | 20:00 | 71 | 47 | 43 | 30.35 | 230 | 1 | 0.00 |
| 6 | 08/30 | 19:00 | 75 | 48 | 39 | 30.36 | 290 | 4 | 0.00 |
| 7 | 08/30 | 18:00 | 75 | 48 | 39 | 30.36 | 10 | 2 | 0.00 |
| 8 | 08/30 | 17:00 | 74 | 46 | 38 | 30.33 | 50 | 1 | 0.00 |
| 9 | 08/30 | 16:00 | 74 | 47 | 39 | 30.31 | 360 | 9 | 0.00 |
| 10 | 08/30 | 15:00 | 73 | 47 | 41 | 30.34 | 50 | 4 | 0.00 |
| 11 | 08/30 | 14:00 | 72 | 47 | 42 | 30.34 | 30 | 6 | 0.00 |
| 12 | 08/30 | 13:00 | 70 | 46 | 43 | 30.35 | 50 | 4 | 0.00 |
| 13 | 08/30 | 12:00 | 70 | 49 | 48 | 30.37 | 50 | 4 | 0.00 |
| 14 | 08/30 | 11:00 | 67 | 49 | 54 | 30.36 | 130 | 4 | 0.00 |
| 15 | 08/30 | 10:00 | 65 | 49 | 57 | 30.35 | 70 | 2 | 0.00 |
| 16 | 08/30 | 09:00 | 63 | 47 | 58 | 30.34 | 30 | 4 | 0.00 |
| 17 | 08/30 | 08:00 | 60 | 46 | 62 | 30.33 | 10 | 4 | 0.00 |
| 18 | 08/30 | 07:00 | 61 | 46 | 59 | 30.32 | 350 | 1 | 0.00 |
| 19 | 08/30 | 06:00 | 60 | 47 | 64 | 30.29 | 10 | 1 | 0.00 |
| 20 | 08/30 | 05:00 | 61 | 47 | 61 | 30.29 | 10 | 4 | 0.00 |
| 21 | 08/30 | 04:00 | 63 | 46 | 56 | 30.30 | 350 | 2 | 0.00 |
| 22 | 08/30 | 03:00 | 64 | 46 | 54 | 30.28 | 310 | 4 | 0.00 |
| 23 | 08/30 | 02:00 | 65 | 48 | 55 | 30.29 | 30 | 4 | 0.00 |
| 24 | 08/30 | 01:00 | 67 | 49 | 53 | 30.29 | 10 | 1 | 0.00 |